Time;durP1;ratioP1;P1;durP2;ratioP2;P2;SDS_P1;SDS_P2;PMS_P1;PMS_P2;Temp;Humidity;BMP_temperature;BMP_pressure;BME280_temperature;BME280_humidity;BME280_pressure;Samples;Min_cycle;Max_cycle;Signal;HPM_P1;HPM_P2
2022/04/10 00:02:29;;;;;;;1.00;1.00;;;2.50;99.90;;;;;;6184470;28;20280;-91
2022/04/10 00:05:35;;;;;;;1.60;1.00;;;2.50;99.90;;;;;;6201558;28;20306;-91
2022/04/10 00:08:46;;;;;;;1.57;1.10;;;2.50;99.90;;;;;;6187215;28;20292;-88
2022/04/10 00:11:55;;;;;;;1.07;1.07;;;2.50;99.90;;;;;;6213151;28;20226;-90
2022/04/10 00:15:01;;;;;;;0.90;0.90;;;2.60;99.90;;;;;;6197094;28;20245;-91
2022/04/10 00:18:08;;;;;;;1.07;1.07;;;2.60;99.90;;;;;;6212287;28;20248;-90
2022/04/10 00:21:14;;;;;;;1.13;1.00;;;2.60;99.90;;;;;;6206113;28;20271;-90
2022/04/10 00:24:25;;;;;;;1.13;0.90;;;2.60;99.90;;;;;;6197072;28;20289;-90
2022/04/10 00:27:35;;;;;;;1.07;1.07;;;2.60;99.90;;;;;;6180845;28;20362;-91
2022/04/10 00:30:42;;;;;;;0.93;0.93;;;2.60;99.90;;;;;;6160139;28;20285;-92
2022/04/10 00:33:49;;;;;;;1.00;1.00;;;2.60;99.90;;;;;;6188928;28;20293;-91
2022/04/10 00:36:54;;;;;;;1.40;0.90;;;2.60;99.90;;;;;;6172079;28;20295;-91
2022/04/10 00:40:02;;;;;;;2.17;0.97;;;2.70;99.90;;;;;;6172517;28;20309;-90
2022/04/10 00:43:08;;;;;;;1.10;1.10;;;2.60;99.90;;;;;;6188187;28;20297;-92
2022/04/10 00:46:16;;;;;;;1.50;1.10;;;2.60;99.90;;;;;;6156618;28;20281;-90
2022/04/10 00:49:21;;;;;;;0.90;0.90;;;2.60;99.90;;;;;;6188452;28;20309;-90
2022/04/10 00:52:28;;;;;;;1.00;1.00;;;2.50;99.90;;;;;;6172951;28;20281;-91
2022/04/10 00:55:35;;;;;;;1.13;1.13;;;2.40;99.90;;;;;;6172311;28;20308;-91
2022/04/10 00:58:42;;;;;;;0.90;0.90;;;2.40;99.90;;;;;;6172081;28;20484;-90
2022/04/10 01:01:54;;;;;;;1.00;1.00;;;2.40;99.90;;;;;;6158756;28;20276;-90
2022/04/10 01:05:16;;;;;;;1.00;1.00;;;2.30;99.90;;;;;;6142366;28;20301;-93
2022/04/10 01:08:22;;;;;;;0.97;0.97;;;2.30;99.90;;;;;;6164051;28;20318;-91
2022/04/10 01:11:30;;;;;;;1.27;0.97;;;2.30;99.90;;;;;;6148579;29;20286;-91
2022/04/10 01:14:39;;;;;;;1.10;1.10;;;2.20;99.90;;;;;;6148529;29;20303;-92
2022/04/10 01:17:49;;;;;;;1.80;1.27;;;2.10;99.90;;;;;;6148231;28;20293;-91
2022/04/10 01:20:56;;;;;;;1.00;1.00;;;2.10;99.90;;;;;;6164676;29;20285;-91
2022/04/10 01:24:07;;;;;;;1.17;1.17;;;2.10;99.90;;;;;;6164001;28;20294;-91
2022/04/10 01:27:13;;;;;;;0.90;0.90;;;2.00;99.90;;;;;;6133804;29;20553;-91
2022/04/10 01:30:19;;;;;;;0.90;0.90;;;2.00;99.90;;;;;;6151013;28;20301;-92
2022/04/10 01:33:25;;;;;;;1.00;1.00;;;1.90;99.90;;;;;;6161215;28;20593;-91
2022/04/10 01:36:32;;;;;;;1.00;1.00;;;1.90;99.90;;;;;;6201697;28;20285;-91
2022/04/10 01:39:42;;;;;;;0.80;0.80;;;1.90;99.90;;;;;;6184817;28;20297;-91
2022/04/10 01:42:50;;;;;;;1.00;1.00;;;1.80;99.90;;;;;;6169685;28;20276;-90
2022/04/10 01:45:57;;;;;;;1.00;1.00;;;1.80;99.90;;;;;;6187718;28;20270;-91
2022/04/10 01:49:06;;;;;;;1.00;1.00;;;1.80;99.90;;;;;;6186695;28;20302;-90
2022/04/10 01:52:11;;;;;;;1.13;1.13;;;1.80;99.90;;;;;;6184206;28;20282;-92
2022/04/10 01:55:22;;;;;;;1.10;1.10;;;1.70;99.90;;;;;;6177181;28;20325;-92
2022/04/10 01:58:28;;;;;;;1.03;1.03;;;1.90;99.90;;;;;;6176216;28;20301;-90
2022/04/10 02:01:34;;;;;;;0.90;0.90;;;1.90;99.90;;;;;;6160852;28;20283;-92
2022/04/10 02:04:40;;;;;;;1.27;0.80;;;2.00;99.90;;;;;;6175372;28;20308;-92
2022/04/10 02:07:46;;;;;;;1.00;1.00;;;2.00;99.90;;;;;;6204172;28;20301;-91
2022/04/10 02:10:53;;;;;;;1.00;1.00;;;2.00;99.90;;;;;;6202605;28;20372;-90
2022/04/10 02:14:01;;;;;;;0.90;0.90;;;2.10;99.90;;;;;;6202928;28;20308;-91
2022/04/10 02:17:07;;;;;;;1.00;1.00;;;2.10;99.90;;;;;;6203511;28;20317;-91
2022/04/10 02:20:14;;;;;;;2.13;1.00;;;2.10;99.90;;;;;;6154558;28;20308;-91
2022/04/10 02:23:21;;;;;;;0.80;0.80;;;2.00;99.90;;;;;;6216304;28;20294;-91
2022/04/10 02:26:31;;;;;;;0.90;0.90;;;2.00;99.90;;;;;;6215501;28;20316;-91
2022/04/10 02:29:37;;;;;;;1.07;1.07;;;1.90;99.90;;;;;;6200111;28;20482;-92
2022/04/10 02:32:43;;;;;;;1.00;1.00;;;1.90;99.90;;;;;;6161468;28;20455;-91
2022/04/10 02:35:50;;;;;;;0.90;0.90;;;1.80;99.90;;;;;;6176213;28;20276;-92
2022/04/10 02:38:57;;;;;;;0.90;0.90;;;1.80;99.90;;;;;;6174830;28;20312;-93
2022/04/10 02:42:07;;;;;;;1.10;1.10;;;1.80;99.90;;;;;;6159722;28;20295;-91
2022/04/10 02:45:13;;;;;;;0.70;0.70;;;1.70;99.90;;;;;;6175243;28;20301;-91
2022/04/10 02:48:20;;;;;;;1.10;1.10;;;1.70;99.90;;;;;;6175891;28;20293;-91
2022/04/10 02:51:27;;;;;;;1.10;1.10;;;1.70;99.90;;;;;;6175784;28;20276;-90
2022/04/10 02:54:36;;;;;;;1.00;1.00;;;1.60;99.90;;;;;;6158616;28;20302;-91
2022/04/10 02:57:43;;;;;;;0.97;0.97;;;1.60;99.90;;;;;;6158230;28;20292;-91
2022/04/10 03:00:49;;;;;;;2.00;1.20;;;1.60;99.90;;;;;;6175732;28;20285;-91
2022/04/10 03:03:55;;;;;;;1.20;1.10;;;1.50;99.90;;;;;;6168580;28;20293;-92
2022/04/10 03:07:03;;;;;;;1.00;1.00;;;1.50;99.90;;;;;;6187538;28;20300;-90
2022/04/10 03:10:10;;;;;;;1.00;1.00;;;1.50;99.90;;;;;;6195824;28;20262;-90
2022/04/10 03:13:19;;;;;;;0.90;0.90;;;1.40;99.90;;;;;;6174098;28;20302;-90
2022/04/10 03:16:31;;;;;;;1.00;1.00;;;1.50;99.90;;;;;;6174395;28;20569;-91
2022/04/10 03:23:13;;;;;;;1.03;0.90;;;1.40;99.90;;;;;;6157984;28;20301;-90
2022/04/10 03:26:20;;;;;;;1.10;1.10;;;1.40;99.90;;;;;;6175293;28;20270;-90
2022/04/10 03:29:28;;;;;;;1.00;1.00;;;1.40;99.90;;;;;;6142452;28;20311;-90
2022/04/10 03:32:34;;;;;;;0.90;0.90;;;1.40;99.90;;;;;;6158045;28;20299;-92
2022/04/10 03:35:40;;;;;;;1.00;1.00;;;1.30;99.90;;;;;;6174522;28;20271;-91
2022/04/10 03:38:47;;;;;;;1.00;1.00;;;1.40;99.90;;;;;;6190047;28;20330;-90
2022/04/10 03:41:53;;;;;;;1.20;1.10;;;1.30;99.90;;;;;;6174484;28;20543;-92
2022/04/10 03:45:02;;;;;;;0.93;0.93;;;1.40;99.90;;;;;;6173769;28;20283;-93
2022/04/10 03:48:09;;;;;;;0.90;0.90;;;1.40;99.90;;;;;;6189830;28;20295;-92
2022/04/10 03:51:16;;;;;;;0.90;0.90;;;1.50;99.90;;;;;;6173288;28;20281;-91
2022/04/10 03:54:25;;;;;;;0.90;0.90;;;1.40;99.90;;;;;;6188959;28;20484;-91
2022/04/10 03:57:30;;;;;;;1.10;1.10;;;1.40;99.90;;;;;;6157793;28;20301;-92
2022/04/10 04:00:41;;;;;;;1.53;1.20;;;1.50;99.90;;;;;;6174178;28;20303;-92
2022/04/10 04:03:51;;;;;;;4.83;1.30;;;1.40;99.90;;;;;;6157353;28;20303;-91
2022/04/10 04:07:39;;;;;;;0.90;0.90;;;1.50;99.90;;;;;;6182236;28;20270;-90
2022/04/10 04:10:46;;;;;;;0.80;0.80;;;1.50;99.90;;;;;;6178371;28;20224;-90
2022/04/10 04:13:55;;;;;;;1.00;1.00;;;1.50;99.90;;;;;;6188672;28;20243;-90
2022/04/10 04:17:05;;;;;;;1.00;1.00;;;1.40;99.90;;;;;;6189459;28;20231;-91
2022/04/10 04:20:14;;;;;;;1.10;1.10;;;1.50;99.90;;;;;;6189786;28;20291;-90
2022/04/10 04:23:22;;;;;;;1.03;1.03;;;1.50;99.90;;;;;;6204141;28;20246;-91
2022/04/10 04:26:29;;;;;;;1.17;1.17;;;1.50;99.90;;;;;;6201735;28;20274;-92
2022/04/10 04:29:41;;;;;;;1.10;1.10;;;1.40;99.90;;;;;;6173217;28;20313;-90
2022/04/10 04:32:48;;;;;;;1.40;1.20;;;1.50;99.90;;;;;;6188673;28;20299;-92
2022/04/10 04:35:54;;;;;;;1.17;1.17;;;1.50;99.90;;;;;;6174021;28;20357;-90
2022/04/10 04:39:00;;;;;;;2.37;1.10;;;1.50;99.90;;;;;;6156704;28;20302;-90
2022/04/10 04:42:09;;;;;;;1.00;1.00;;;1.60;99.90;;;;;;6157677;28;20280;-92
2022/04/10 04:45:16;;;;;;;1.00;1.00;;;1.50;99.90;;;;;;6174053;28;20281;-90
2022/04/10 04:48:44;;;;;;;1.20;1.20;;;1.50;99.90;;;;;;6191076;28;20290;-91
2022/04/10 04:51:50;;;;;;;1.10;1.10;;;1.50;99.90;;;;;;6174592;28;20276;-91
2022/04/10 04:54:56;;;;;;;3.60;1.40;;;1.50;99.90;;;;;;6187890;28;20249;-90
2022/04/10 04:58:04;;;;;;;1.53;1.53;;;1.50;99.90;;;;;;6188066;28;20246;-91
2022/04/10 05:01:11;;;;;;;1.20;1.20;;;1.50;99.90;;;;;;6173231;28;20274;-92
2022/04/10 05:04:20;;;;;;;1.30;1.30;;;1.60;99.90;;;;;;6203233;28;20267;-90
2022/04/10 05:07:27;;;;;;;1.23;1.23;;;1.60;99.90;;;;;;6183088;28;20298;-92
2022/04/10 05:10:35;;;;;;;1.20;1.10;;;1.60;99.90;;;;;;6192567;28;20452;-91
2022/04/10 05:13:44;;;;;;;1.10;1.10;;;1.70;99.90;;;;;;6177507;28;20303;-91
2022/04/10 05:16:50;;;;;;;1.00;1.00;;;1.70;99.90;;;;;;6175894;28;20283;-90
2022/04/10 05:20:00;;;;;;;0.90;0.90;;;1.80;99.90;;;;;;6176996;28;20303;-91
2022/04/10 05:23:07;;;;;;;1.20;1.10;;;1.80;99.90;;;;;;6160499;28;20308;-90
2022/04/10 05:26:31;;;;;;;1.20;1.20;;;1.80;99.90;;;;;;6177464;28;20285;-92
2022/04/10 05:30:02;;;;;;;1.20;1.20;;;1.90;99.90;;;;;;6162063;28;20436;-94
2022/04/10 05:33:10;;;;;;;0.90;0.90;;;2.10;99.90;;;;;;6176243;28;20572;-91
2022/04/10 05:36:17;;;;;;;1.00;1.00;;;2.10;99.90;;;;;;6162091;28;20280;-93
2022/04/10 05:39:25;;;;;;;1.10;1.10;;;2.10;99.90;;;;;;6175680;28;20326;-92
2022/04/10 05:42:31;;;;;;;0.90;0.90;;;2.20;99.90;;;;;;6160988;28;20471;-92
2022/04/10 05:45:38;;;;;;;1.10;1.10;;;2.20;99.90;;;;;;6177258;28;20282;-93
2022/04/10 05:48:46;;;;;;;1.00;1.00;;;2.30;99.90;;;;;;6176921;28;20307;-91
2022/04/10 05:51:55;;;;;;;1.07;1.07;;;2.30;99.90;;;;;;6161844;28;20569;-93
2022/04/10 05:55:05;;;;;;;1.13;1.00;;;2.40;99.90;;;;;;6175760;28;20276;-92
2022/04/10 05:58:12;;;;;;;0.87;0.87;;;2.50;99.90;;;;;;6161980;28;20573;-90
2022/04/10 06:01:21;;;;;;;1.00;1.00;;;2.70;99.90;;;;;;6192846;28;20289;-90
2022/04/10 06:04:30;;;;;;;1.10;1.00;;;2.70;99.90;;;;;;6176002;28;20304;-90
2022/04/10 06:07:39;;;;;;;1.00;1.00;;;2.90;99.90;;;;;;6177429;28;20294;-90
2022/04/10 06:10:45;;;;;;;0.80;0.80;;;3.00;99.90;;;;;;6192743;28;20480;-91
2022/04/10 06:13:52;;;;;;;0.80;0.80;;;3.10;99.90;;;;;;6176341;28;20305;-93
2022/04/10 06:17:03;;;;;;;1.07;1.00;;;3.20;99.90;;;;;;6159458;28;20278;-91
2022/04/10 06:20:13;;;;;;;0.97;0.97;;;3.40;99.90;;;;;;6160826;28;20289;-91
2022/04/10 06:23:23;;;;;;;3.97;1.27;;;3.30;99.90;;;;;;6176252;28;20313;-94
2022/04/10 06:26:37;;;;;;;0.80;0.80;;;3.50;99.90;;;;;;6161432;28;20286;-91
2022/04/10 06:29:45;;;;;;;1.00;0.93;;;3.60;99.90;;;;;;6175794;28;20320;-91
2022/04/10 06:32:57;;;;;;;0.90;0.90;;;3.60;99.90;;;;;;6162040;28;20296;-92
2022/04/10 06:36:05;;;;;;;0.90;0.90;;;3.50;99.90;;;;;;6176903;28;20281;-91
2022/04/10 06:39:13;;;;;;;0.83;0.83;;;3.50;99.90;;;;;;6160855;28;20312;-91
2022/04/10 06:42:20;;;;;;;0.80;0.80;;;3.50;99.90;;;;;;6160539;28;20297;-93
2022/04/10 06:46:01;;;;;;;0.80;0.80;;;3.50;99.90;;;;;;6174937;28;20273;-90
2022/04/10 06:49:13;;;;;;;0.80;0.80;;;3.70;99.90;;;;;;6161512;28;20301;-91
2022/04/10 06:52:22;;;;;;;0.80;0.80;;;4.00;99.90;;;;;;6175002;28;20298;-91
2022/04/10 06:55:33;;;;;;;1.43;0.80;;;4.20;99.90;;;;;;6160231;28;20284;-90
2022/04/10 06:58:41;;;;;;;0.77;0.77;;;4.00;99.90;;;;;;6144800;28;20376;-92
2022/04/10 07:01:47;;;;;;;1.23;0.80;;;4.00;99.90;;;;;;6191960;28;20295;-91
2022/04/10 07:04:54;;;;;;;1.70;0.87;;;4.00;99.90;;;;;;6160036;28;20309;-91
2022/04/10 07:08:02;;;;;;;0.80;0.80;;;4.20;99.90;;;;;;6159726;28;20314;-91
2022/04/10 07:11:11;;;;;;;0.73;0.73;;;4.50;99.90;;;;;;6164038;28;20581;-91
2022/04/10 07:14:17;;;;;;;0.90;0.90;;;4.60;99.90;;;;;;6177696;28;20301;-93
2022/04/10 07:17:25;;;;;;;0.60;0.60;;;4.60;99.90;;;;;;6163538;28;20302;-91
2022/04/10 07:20:36;;;;;;;0.87;0.80;;;4.60;99.90;;;;;;6179615;28;20276;-90
2022/04/10 07:23:46;;;;;;;0.90;0.90;;;4.40;99.90;;;;;;6193876;28;20311;-92
2022/04/10 07:27:03;;;;;;;0.80;0.80;;;4.40;99.90;;;;;;6181731;28;20272;-90
2022/04/10 07:30:16;;;;;;;0.70;0.70;;;4.40;99.90;;;;;;6161002;28;20583;-91
2022/04/10 07:33:21;;;;;;;0.87;0.87;;;4.40;99.90;;;;;;6174829;28;20593;-90
2022/04/10 07:36:32;;;;;;;0.70;0.70;;;4.40;99.90;;;;;;6191285;28;20564;-91
2022/04/10 07:39:39;;;;;;;0.63;0.63;;;4.40;99.90;;;;;;6175499;28;20302;-91
2022/04/10 07:43:02;;;;;;;0.70;0.70;;;4.50;99.90;;;;;;6160670;28;20307;-90
2022/04/10 07:49:47;;;;;;;0.87;0.80;;;4.40;99.90;;;;;;6190585;28;20462;-90
2022/04/10 07:52:54;;;;;;;0.70;0.70;;;4.40;99.90;;;;;;6174998;28;20286;-91
2022/04/10 07:56:05;;;;;;;0.77;0.77;;;4.50;99.90;;;;;;6175368;28;20267;-93
2022/04/10 07:59:12;;;;;;;1.17;0.90;;;4.50;99.90;;;;;;6174848;28;20302;-92
2022/04/10 08:02:20;;;;;;;1.60;0.90;;;4.40;99.90;;;;;;6190323;28;20303;-90
2022/04/10 08:05:30;;;;;;;1.60;0.70;;;4.50;99.90;;;;;;6174455;28;20276;-91
2022/04/10 08:08:55;;;;;;;0.73;0.73;;;4.50;99.90;;;;;;6173265;28;20589;-90
2022/04/10 08:12:01;;;;;;;0.90;0.90;;;4.50;99.90;;;;;;6194248;28;20266;-90
2022/04/10 08:15:13;;;;;;;0.80;0.80;;;4.50;99.90;;;;;;6198366;28;20277;-92
2022/04/10 08:18:20;;;;;;;0.70;0.70;;;4.60;99.90;;;;;;6197864;28;20297;-91
2022/04/10 08:21:26;;;;;;;0.70;0.70;;;4.60;99.90;;;;;;6214428;28;20275;-91
2022/04/10 08:24:32;;;;;;;0.93;0.70;;;4.70;99.90;;;;;;6197866;28;20302;-90
2022/04/10 08:27:38;;;;;;;0.70;0.70;;;4.70;99.90;;;;;;6197949;28;20297;-91
2022/04/10 08:30:46;;;;;;;0.70;0.70;;;4.80;99.90;;;;;;6198864;28;20360;-91
2022/04/10 08:33:52;;;;;;;1.70;0.60;;;4.80;99.90;;;;;;6202528;28;20310;-91
2022/04/10 08:37:03;;;;;;;0.67;0.67;;;4.80;99.90;;;;;;6215677;28;20281;-90
2022/04/10 08:40:12;;;;;;;1.63;0.73;;;4.90;99.90;;;;;;6181122;28;20275;-90
2022/04/10 08:43:21;;;;;;;0.70;0.67;;;4.90;99.90;;;;;;6197853;28;20307;-90
2022/04/10 08:46:29;;;;;;;0.70;0.70;;;4.90;99.90;;;;;;6197991;28;20351;-90
2022/04/10 08:49:36;;;;;;;0.77;0.77;;;4.90;99.90;;;;;;6213358;28;20294;-88
2022/04/10 08:52:41;;;;;;;0.70;0.70;;;5.00;99.90;;;;;;6196367;28;20307;-89
2022/04/10 08:55:49;;;;;;;0.70;0.70;;;4.90;99.90;;;;;;6197660;28;20572;-92
2022/04/10 08:58:56;;;;;;;0.67;0.67;;;5.00;99.90;;;;;;6181053;28;20308;-91
2022/04/10 09:02:04;;;;;;;0.80;0.80;;;5.00;99.90;;;;;;6197322;28;20280;-94
2022/04/10 09:05:18;;;;;;;0.90;0.90;;;5.00;99.90;;;;;;6197160;28;20279;-89
2022/04/10 09:08:25;;;;;;;0.50;0.50;;;5.00;99.90;;;;;;6173125;28;20304;-92
2022/04/10 09:11:31;;;;;;;4.93;0.90;;;5.10;99.90;;;;;;6156368;29;20273;-92
2022/04/10 09:14:40;;;;;;;0.70;0.70;;;5.10;99.90;;;;;;6133290;29;20305;-92
2022/04/10 09:17:56;;;;;;;0.67;0.67;;;5.10;99.90;;;;;;6139711;29;20297;-91
2022/04/10 09:21:09;;;;;;;1.40;0.70;;;5.10;99.90;;;;;;6148487;29;20576;-90
2022/04/10 09:24:16;;;;;;;3.03;0.80;;;5.20;99.90;;;;;;6148498;29;20317;-90
2022/04/10 09:27:31;;;;;;;1.47;0.80;;;5.20;99.90;;;;;;6139350;28;20375;-91
2022/04/10 09:30:37;;;;;;;0.70;0.70;;;5.20;99.90;;;;;;6133691;29;20278;-90
2022/04/10 09:33:50;;;;;;;0.70;0.70;;;5.30;99.90;;;;;;6164524;28;20296;-89
2022/04/10 09:37:01;;;;;;;0.87;0.80;;;5.30;99.90;;;;;;6165195;29;20298;-90
2022/04/10 09:40:28;;;;;;;0.80;0.80;;;5.50;99.90;;;;;;6154397;29;20302;-91
2022/04/10 09:43:37;;;;;;;1.20;0.70;;;5.50;99.90;;;;;;6146979;28;20298;-90
2022/04/10 09:46:44;;;;;;;0.80;0.80;;;5.60;99.90;;;;;;6163900;28;20237;-91
2022/04/10 09:49:53;;;;;;;1.20;0.63;;;5.80;99.90;;;;;;6175436;28;20272;-90
2022/04/10 09:52:59;;;;;;;0.70;0.70;;;5.80;99.90;;;;;;6171693;28;20480;-90
2022/04/10 09:56:07;;;;;;;0.70;0.70;;;5.80;99.90;;;;;;6153305;29;20562;-90
2022/04/10 09:59:14;;;;;;;0.80;0.80;;;5.90;99.90;;;;;;6168378;29;20516;-91
2022/04/10 10:02:23;;;;;;;0.80;0.80;;;5.90;99.90;;;;;;6135805;29;20580;-92
2022/04/10 10:05:33;;;;;;;0.83;0.70;;;6.00;99.90;;;;;;6169146;28;20302;-91
2022/04/10 10:08:39;;;;;;;2.33;0.80;;;6.10;99.90;;;;;;6168038;28;20502;-91
2022/04/10 10:11:45;;;;;;;3.47;0.80;;;6.20;99.90;;;;;;6195242;28;20272;-90
2022/04/10 10:14:51;;;;;;;1.70;0.83;;;6.30;99.90;;;;;;6215853;28;20304;-90
2022/04/10 10:18:00;;;;;;;0.80;0.80;;;6.30;99.90;;;;;;6199072;28;20296;-91
2022/04/10 10:21:10;;;;;;;3.37;0.70;;;6.30;99.90;;;;;;6216813;28;20277;-91
2022/04/10 10:24:16;;;;;;;0.70;0.70;;;6.50;99.90;;;;;;6216104;28;20306;-91
2022/04/10 10:27:56;;;;;;;3.10;0.80;;;6.50;99.90;;;;;;6200173;28;20292;-92
2022/04/10 10:31:22;;;;;;;1.70;0.70;;;6.70;99.90;;;;;;6192119;28;20284;-91
2022/04/10 10:34:31;;;;;;;0.70;0.70;;;6.90;99.90;;;;;;6199092;28;20288;-93
2022/04/10 10:37:51;;;;;;;0.77;0.77;;;6.90;99.90;;;;;;6199153;28;20599;-93
2022/04/10 10:41:26;;;;;;;0.60;0.60;;;7.10;99.90;;;;;;6199962;28;20274;-92
2022/04/10 10:44:44;;;;;;;0.80;0.80;;;7.20;99.90;;;;;;6198598;28;20296;-91
2022/04/10 10:47:50;;;;;;;0.73;0.73;;;7.40;99.90;;;;;;6199255;28;20360;-93
2022/04/10 10:51:38;;;;;;;1.17;0.70;;;7.60;99.90;;;;;;6216423;28;20277;-93
2022/04/10 10:54:55;;;;;;;1.10;0.73;;;7.70;99.40;;;;;;6216790;28;20289;-90
2022/04/10 10:58:08;;;;;;;0.70;0.70;;;7.90;99.90;;;;;;6201695;28;20308;-90
2022/04/10 11:01:19;;;;;;;0.60;0.60;;;8.00;99.90;;;;;;6199714;28;20277;-91
2022/04/10 11:04:28;;;;;;;0.60;0.60;;;8.00;99.00;;;;;;6181431;28;20601;-90
2022/04/10 11:07:39;;;;;;;0.80;0.80;;;7.80;98.70;;;;;;6198760;28;20296;-91
2022/04/10 11:11:04;;;;;;;1.02;0.70;;;7.80;99.00;;;;;;6188485;28;20573;-90
2022/04/10 11:14:36;;;;;;;2.67;0.70;;;7.80;98.40;;;;;;6159955;28;20484;-94
2022/04/10 11:17:44;;;;;;;0.80;0.80;;;7.90;99.70;;;;;;6159197;28;20294;-92
2022/04/10 11:20:55;;;;;;;0.93;0.70;;;7.80;99.90;;;;;;6192634;28;20273;-92
2022/04/10 11:24:02;;;;;;;0.52;0.52;;;7.70;98.80;;;;;;6157857;28;20302;-93
2022/04/10 11:27:13;;;;;;;1.05;0.55;;;7.60;98.70;;;;;;6158152;28;20281;-91
2022/04/10 11:30:24;;;;;;;0.63;0.63;;;7.60;98.90;;;;;;6191431;28;20278;-92
2022/04/10 11:33:49;;;;;;;1.27;0.80;;;7.60;99.30;;;;;;6175590;28;20293;-93
2022/04/10 11:36:59;;;;;;;1.23;0.68;;;7.60;98.80;;;;;;6176119;28;20277;-93
2022/04/10 11:40:09;;;;;;;0.60;0.60;;;7.70;98.90;;;;;;6174222;28;20298;-92
2022/04/10 11:43:19;;;;;;;0.60;0.60;;;7.80;99.20;;;;;;6190816;28;20604;-93
2022/04/10 11:46:26;;;;;;;0.60;0.60;;;7.80;99.10;;;;;;6177877;28;20286;-92
2022/04/10 11:49:32;;;;;;;0.60;0.57;;;7.90;98.70;;;;;;6192587;28;20289;-92
2022/04/10 11:52:38;;;;;;;1.00;0.88;;;7.90;98.60;;;;;;6179142;28;20294;-91
2022/04/10 11:55:47;;;;;;;0.70;0.70;;;8.10;98.30;;;;;;6180062;28;20267;-91
2022/04/10 11:58:55;;;;;;;1.70;1.60;;;8.10;98.50;;;;;;6193617;28;20318;-91
2022/04/10 12:02:04;;;;;;;1.95;1.10;;;8.20;98.50;;;;;;6177820;28;20274;-90
2022/04/10 12:05:11;;;;;;;0.57;0.57;;;8.20;97.90;;;;;;6175631;28;20575;-89
2022/04/10 12:08:18;;;;;;;0.60;0.60;;;8.20;98.10;;;;;;6157632;28;20305;-92
2022/04/10 12:11:25;;;;;;;1.20;0.60;;;8.20;97.20;;;;;;6207364;28;20273;-92
2022/04/10 12:14:33;;;;;;;0.70;0.70;;;8.30;96.80;;;;;;6214733;28;20490;-92
2022/04/10 12:17:39;;;;;;;0.60;0.60;;;8.40;96.40;;;;;;6198015;28;20297;-93
2022/04/10 12:21:05;;;;;;;0.73;0.73;;;8.40;96.20;;;;;;6198804;28;20276;-92
2022/04/10 12:24:20;;;;;;;2.72;0.68;;;8.50;96.70;;;;;;6198202;28;20297;-91
2022/04/10 12:27:26;;;;;;;0.55;0.55;;;8.60;95.60;;;;;;6210706;28;20230;-91
2022/04/10 12:30:37;;;;;;;0.98;0.50;;;8.80;95.60;;;;;;6213202;28;20256;-92
2022/04/10 12:33:46;;;;;;;0.80;0.60;;;8.90;95.70;;;;;;6212532;28;20245;-94
2022/04/10 12:36:53;;;;;;;0.60;0.60;;;8.90;94.70;;;;;;6198399;28;20243;-91
2022/04/10 12:40:00;;;;;;;4.13;0.70;;;9.00;94.60;;;;;;6194833;28;20278;-92
2022/04/10 12:43:08;;;;;;;0.70;0.70;;;8.90;94.60;;;;;;6212234;28;20317;-91
2022/04/10 12:46:15;;;;;;;0.60;0.60;;;8.90;95.20;;;;;;6211558;28;20293;-94
2022/04/10 12:49:21;;;;;;;0.60;0.60;;;8.90;95.50;;;;;;6199773;28;20616;-93
2022/04/10 12:52:32;;;;;;;1.98;0.50;;;9.00;95.00;;;;;;6198971;28;20289;-91
2022/04/10 12:55:39;;;;;;;0.52;0.52;;;9.20;94.50;;;;;;6199655;28;20274;-92
2022/04/10 12:58:47;;;;;;;1.00;0.73;;;9.30;94.70;;;;;;6181393;28;20302;-93
2022/04/10 13:01:57;;;;;;;0.60;0.60;;;9.50;94.60;;;;;;6175415;28;20265;-92
2022/04/10 13:05:12;;;;;;;0.60;0.47;;;9.60;93.90;;;;;;6207236;28;20282;-92
2022/04/10 13:08:29;;;;;;;0.50;0.50;;;9.50;93.20;;;;;;6191867;28;20297;-93
2022/04/10 13:11:37;;;;;;;1.08;0.77;;;9.60;93.40;;;;;;6191077;28;20262;-91
2022/04/10 13:14:51;;;;;;;1.08;0.50;;;9.50;93.00;;;;;;6183657;28;20297;-90
2022/04/10 13:18:06;;;;;;;0.85;0.60;;;9.50;93.20;;;;;;6182778;28;20519;-92
2022/04/10 13:21:17;;;;;;;3.92;0.90;;;9.60;93.50;;;;;;6179103;28;20269;-93
2022/04/10 13:24:25;;;;;;;0.57;0.57;;;9.60;92.80;;;;;;6159929;28;20306;-93
2022/04/10 13:27:32;;;;;;;0.47;0.47;;;9.70;92.80;;;;;;6176994;28;20306;-92
2022/04/10 13:34:17;;;;;;;0.60;0.60;;;9.50;93.20;;;;;;6167458;28;20295;-91
2022/04/10 13:37:29;;;;;;;0.60;0.60;;;9.50;91.50;;;;;;6164314;28;20302;-92
2022/04/10 13:40:37;;;;;;;0.55;0.55;;;9.40;91.40;;;;;;6179445;28;20279;-92
2022/04/10 13:43:48;;;;;;;0.60;0.60;;;9.50;92.20;;;;;;6163144;28;20306;-91
2022/04/10 13:52:30;;;;;;;0.90;0.60;;;9.60;92.20;;;;;;6152592;28;20349;-93
2022/04/10 13:55:36;;;;;;;0.57;0.50;;;9.50;91.40;;;;;;6179611;28;20274;-92
2022/04/10 13:58:47;;;;;;;0.60;0.60;;;9.40;90.80;;;;;;6179669;28;20314;-93
2022/04/10 14:01:52;;;;;;;0.60;0.60;;;9.40;91.20;;;;;;6179856;28;20282;-92
2022/04/10 14:05:00;;;;;;;0.50;0.50;;;9.40;91.50;;;;;;6179092;28;20279;-92
2022/04/10 14:08:14;;;;;;;0.52;0.50;;;9.40;91.30;;;;;;6161979;28;20302;-91
2022/04/10 14:11:47;;;;;;;0.50;0.50;;;9.30;91.00;;;;;;6179753;28;20262;-94
2022/04/10 14:14:53;;;;;;;0.73;0.70;;;9.40;92.30;;;;;;6179470;28;20306;-93
2022/04/10 14:17:59;;;;;;;0.57;0.50;;;9.40;91.30;;;;;;6177838;28;20302;-92
2022/04/10 14:21:06;;;;;;;0.60;0.60;;;9.30;92.10;;;;;;6178878;28;20266;-92
2022/04/10 14:24:14;;;;;;;0.60;0.60;;;9.20;92.20;;;;;;6162062;28;20294;-93
2022/04/10 14:27:20;;;;;;;0.70;0.70;;;9.30;91.80;;;;;;6160917;28;20565;-94
2022/04/10 14:30:27;;;;;;;0.70;0.70;;;9.30;92.20;;;;;;6177947;28;20262;-92
2022/04/10 14:33:34;;;;;;;2.08;0.70;;;9.20;92.60;;;;;;6161974;28;20306;-93
2022/04/10 14:36:45;;;;;;;0.50;0.50;;;9.10;92.30;;;;;;6180707;28;20299;-93
2022/04/10 14:39:54;;;;;;;1.13;0.82;;;9.10;93.00;;;;;;6161978;28;20294;-93
2022/04/10 14:43:00;;;;;;;0.60;0.60;;;9.10;93.60;;;;;;6188048;28;20293;-93
2022/04/10 14:46:06;;;;;;;1.95;0.57;;;9.20;93.10;;;;;;6190612;28;20222;-94
2022/04/10 14:49:16;;;;;;;0.60;0.60;;;9.20;93.00;;;;;;6191541;28;20231;-92
2022/04/10 14:52:24;;;;;;;4.32;0.80;;;9.20;93.20;;;;;;6174347;28;20858;-93
2022/04/10 14:55:32;;;;;;;0.60;0.60;;;9.10;94.40;;;;;;6190631;28;20245;-92
2022/04/10 14:58:38;;;;;;;0.50;0.50;;;9.10;93.80;;;;;;6195215;28;20302;-92
2022/04/10 15:01:44;;;;;;;0.60;0.60;;;9.10;94.40;;;;;;6176774;28;20266;-93
2022/04/10 15:04:51;;;;;;;0.60;0.60;;;9.00;94.20;;;;;;6176547;28;20572;-92
2022/04/10 15:08:01;;;;;;;1.05;0.70;;;9.00;93.90;;;;;;6205024;28;20298;-93
2022/04/10 15:11:09;;;;;;;1.70;0.73;;;9.00;93.80;;;;;;6187625;28;20298;-92
2022/04/10 15:14:16;;;;;;;3.25;0.80;;;9.00;94.10;;;;;;6177440;28;20290;-93
2022/04/10 15:17:22;;;;;;;1.38;0.80;;;9.00;94.80;;;;;;6160089;28;20290;-94
2022/04/10 15:20:30;;;;;;;0.63;0.63;;;9.00;94.70;;;;;;6176388;28;20282;-92
2022/04/10 15:23:36;;;;;;;1.80;0.68;;;8.90;94.40;;;;;;6167272;28;20302;-93
2022/04/10 15:26:45;;;;;;;0.60;0.60;;;9.00;94.40;;;;;;6177899;28;20279;-93
2022/04/10 15:29:51;;;;;;;1.23;0.60;;;9.00;94.50;;;;;;6176378;28;20305;-93
2022/04/10 15:32:58;;;;;;;0.80;0.80;;;9.10;94.40;;;;;;6177054;28;20297;-92
2022/04/10 15:36:10;;;;;;;3.15;0.80;;;9.10;95.00;;;;;;6159821;28;20278;-92
2022/04/10 15:39:16;;;;;;;0.60;0.60;;;9.10;94.80;;;;;;6175842;28;20333;-93
2022/04/10 15:42:24;;;;;;;0.82;0.82;;;9.10;95.20;;;;;;6161680;28;20286;-93
2022/04/10 15:48:51;;;;;;;0.70;0.70;;;9.10;94.80;;;;;;6177321;28;20306;-91
2022/04/10 15:52:02;;;;;;;0.65;0.65;;;9.10;94.70;;;;;;6163991;28;20278;-93
2022/04/10 15:55:15;;;;;;;0.70;0.70;;;9.00;94.70;;;;;;6162010;28;20277;-93
2022/04/10 15:58:35;;;;;;;0.70;0.70;;;9.00;95.10;;;;;;6176005;28;20301;-93
2022/04/10 16:01:42;;;;;;;0.68;0.68;;;8.90;94.90;;;;;;6160657;28;20281;-94
2022/04/10 16:04:49;;;;;;;0.80;0.80;;;8.90;95.30;;;;;;6177461;28;20301;-93
2022/04/10 16:07:56;;;;;;;0.60;0.60;;;8.80;95.10;;;;;;6143917;28;20306;-92
2022/04/10 16:14:31;;;;;;;0.80;0.80;;;8.80;95.40;;;;;;6158655;28;20322;-92
2022/04/10 16:17:39;;;;;;;1.30;0.68;;;8.80;95.60;;;;;;6190250;28;20298;-93
2022/04/10 16:20:44;;;;;;;0.70;0.70;;;8.80;95.60;;;;;;6175664;28;20273;-92
2022/04/10 16:23:50;;;;;;;0.88;0.88;;;8.70;95.80;;;;;;6190770;28;20301;-91
2022/04/10 16:30:37;;;;;;;3.20;0.68;;;8.70;95.90;;;;;;6190133;28;20278;-92
2022/04/10 16:34:26;;;;;;;2.15;0.80;;;8.70;95.90;;;;;;6183017;28;20240;-91
2022/04/10 16:37:55;;;;;;;2.13;0.60;;;8.60;96.00;;;;;;6161593;28;20289;-92
2022/04/10 17:00:39;;;;;;;;;;;;;;;;;;;;;
2022/04/10 17:05:11;;;;;;;1.85;0.75;;;8.20;96.00;;;;;;6146995;28;20299;-91
2022/04/10 17:09:37;;;;;;;0.95;0.60;;;8.20;96.00;;;;;;6124049;29;20351;-92
2022/04/10 17:13:01;;;;;;;2.28;0.75;;;8.10;95.50;;;;;;6072541;28;20628;-92
2022/04/10 17:26:11;;;;;;;0.60;0.60;;;7.90;95.20;;;;;;5999129;29;20289;-93
2022/04/10 17:29:17;;;;;;;2.30;0.73;;;7.90;95.20;;;;;;6055568;29;20490;-90
2022/04/10 17:32:23;;;;;;;1.92;0.90;;;7.90;94.40;;;;;;6070031;29;20292;-90
2022/04/10 17:35:29;;;;;;;1.55;0.77;;;7.90;94.80;;;;;;6086096;29;20273;-92
2022/04/10 17:38:35;;;;;;;2.40;1.00;;;7.80;94.60;;;;;;6085368;29;20309;-92
2022/04/10 17:41:45;;;;;;;1.40;0.95;;;7.80;95.60;;;;;;6025046;29;20592;-90